Track Медведев Григорий

Time Latitude Longitude Accuracy (66% radius in meters) Altitude (meters) Speed (km/hour) Bearing (degrees) Battery (%) GPS flag
09:18:10 55.944056 38.068153 6 180.43716294481 0.20646567642689 328.09140014648 81 1 delete
09:18:01 55.944044 38.068149 8 180.4513283716 0.39324453473091 0.60820627212524 81 1 delete
09:17:46 55.944052 38.068164 6 180.64535071647 0.010158657096326 87.982528686523 81 1 delete
09:17:37 55.944046 38.068143 8 180.0764075032 0.25394362211227 352.07330322266 81 1 delete
09:17:25 55.944029 38.068154 6 179.34803094701 0.19275352358818 185.99699401855 81 1 delete
09:17:13 55.944034 38.068165 12 179.31156095174 0.31198874115944 274.5319519043 81 1 delete
09:17:01 55.944043 38.068223 6 179.54273139226 0.61769932508469 252.50804138184 81 1 delete
09:16:55 55.944042 38.068206 12 180.10360096214 0.45478928089142 35.37036895752 81 1 delete
09:16:49 55.944032 38.068169 8 181.0088833395 0.0072111659683287 68.297164916992 81 1 delete
09:16:40 55.944033 38.068122 12 182.36035369002 0.24137179553509 41.78564453125 81 1 delete
09:16:37 55.944035 38.068118 12 182.93154388294 0.40324193239212 41.78564453125 81 1 delete
09:16:25 55.944053 38.068050 12 184.98969204701 0.80571675300598 77.055137634277 81 1 delete
09:16:16 55.944001 38.067976 12 186.96638421294 1.8020446300507 64.460914611816 81 1 delete
09:16:13 55.943984 38.067892 12 187.7789494185 1.8663069009781 66.81364440918 81 1 delete
09:16:10 55.943953 38.067755 8 188.52649110084 1.652987241745 53.402210235596 81 1 delete
09:16:07 55.943915 38.067634 12 189.37035321725 1.3081139326096 62.136627197266 81 1 delete
09:16:04 55.943882 38.067528 6 190.25838993866 0.79902398586273 134.06842041016 81 1 delete
09:16:01 55.943882 38.067484 6 191.1868194093 0.59329396486282 65.481666564941 81 1 delete
09:15:55 55.943864 38.067442 16 192.59460205371 3.1906969547272 44.765289306641 81 1 delete
09:15:52 55.943732 38.067262 12 191.54234563997 2.8920316696167 14.506445884705 81 1 delete
09:15:49 55.943639 38.067187 8 190.04432950315 2.6883354187012 8.6349935531616 81 1 delete
09:15:46 55.943541 38.067056 6 189.79559544911 2.6089117527008 39.212619781494 81 1 delete
09:15:43 55.943470 38.066953 8 189.58389180088 2.6351959705353 66.326622009277 81 1 delete
09:15:40 55.943394 38.066907 6 189.6186929245 3.0303575992584 151.23782348633 81 1 delete
09:15:37 55.943269 38.066865 8 189.70243791207 3.2152965068817 35.043334960938 81 1 delete
09:15:34 55.943159 38.066864 6 189.6984058804 3.19140625 334.25820922852 81 1 delete
09:15:31 55.943043 38.066936 6 189.6726410844 3.2713510990143 339.02862548828 81 1 delete
09:15:28 55.942923 38.066995 6 189.64138125245 3.281455039978 350.12719726562 81 1 delete
09:15:25 55.942796 38.067056 8 189.57585952988 3.269278049469 335.65713500977 81 1 delete
09:15:22 55.942681 38.067160 8 189.52173547738 3.1084182262421 324.13790893555 81 1 delete
09:15:19 55.942594 38.067236 6 189.18411243678 2.9101705551147 9.7174291610718 81 1 delete
09:15:16 55.942508 38.067227 8 189.14396181691 2.9094140529633 10.104224205017 81 1 delete
09:15:10 55.942457 38.067137 8 189.73366418199 3.0551192760468 102.93941497803 81 1 delete
09:15:07 55.942481 38.066967 8 190.02075361693 2.9937381744385 134.87565612793 81 1 delete
09:15:04 55.942508 38.066829 8 190.45968781285 2.9649534225464 101.57051849365 81 1 delete
09:15:01 55.942463 38.066643 8 191.08997300114 2.7952439785004 49.867198944092 81 1 delete
09:14:58 55.942359 38.066514 8 191.83415987178 2.8528561592102 35.991256713867 81 1 delete
09:14:55 55.942292 38.066450 12 192.47363740144 0 129.30229187012 81 1 delete
09:14:52 55.942212 38.066422 6 193.06313795884 3.5312030315399 8.4560289382935 81 1 delete
09:14:49 55.942140 38.066377 8 193.39061296489 3.7647008895874 348.79440307617 81 1 delete
09:14:46 55.942012 38.066318 8 193.76289464793 3.9830253124237 357.25857543945 81 1 delete
09:14:43 55.941933 38.066298 6 194.00158186399 4.1403198242188 21.386949539185 81 1 delete
09:14:40 55.941819 38.066201 8 193.98893939804 4.2353072166443 11.100470542908 81 1 delete
09:14:37 55.941783 38.066167 8 195.3542459811 4.2871809005737 71.113456726074 81 1 delete
09:14:34 55.941812 38.065917 8 196.52480389373 4.3706307411194 105.62596893311 81 1 delete
09:14:31 55.941862 38.065679 8 196.51781841529 4.523238658905 110.19171905518 81 1 delete
09:14:28 55.941923 38.065449 8 197.03835053926 4.4513063430786 111.77464294434 81 1 delete
09:14:25 55.941997 38.065192 8 197.56328252256 4.3128442764282 129.79476928711 81 1 delete
09:14:22 55.942074 38.064937 6 199.97522472864 4.2619690895081 121.56569671631 81 1 delete
09:14:19 55.942144 38.064715 8 200.56944799054 4.3171768188477 114.63486480713 81 1 delete